Time;durP1;ratioP1;P1;durP2;ratioP2;P2;SDS_P1;SDS_P2;PMS_P1;PMS_P2;Temp;Humidity;BMP_temperature;BMP_pressure;BME280_temperature;BME280_humidity;BME280_pressure;Samples;Min_cycle;Max_cycle;Signal;HPM_P1;HPM_P2
2022/02/22 00:01:26;;;;;;;1.30;0.30;;;7.20;99.90;;;;;;5035857;28;20896;-59
2022/02/22 00:03:53;;;;;;;0.77;0.30;;;7.20;99.90;;;;;;5035651;28;20415;-58
2022/02/22 00:06:20;;;;;;;2.70;0.30;;;7.10;99.90;;;;;;5035869;28;20419;-58
2022/02/22 00:08:47;;;;;;;0.90;0.20;;;7.20;1.00;;;;;;5035896;28;20427;-58
2022/02/22 00:11:15;;;;;;;0.70;0.20;;;7.20;1.00;;;;;;5036340;28;20526;-58
2022/02/22 00:13:42;;;;;;;1.40;0.30;;;7.20;99.90;;;;;;5037030;28;20429;-56
2022/02/22 00:16:09;;;;;;;1.30;0.20;;;7.20;99.90;;;;;;5037685;28;20427;-58
2022/02/22 00:18:36;;;;;;;1.60;0.30;;;7.10;99.90;;;;;;5037025;28;20429;-57
2022/02/22 00:21:03;;;;;;;1.05;0.20;;;7.20;1.00;;;;;;5036928;28;20419;-58
2022/02/22 00:23:30;;;;;;;1.00;0.20;;;7.20;1.00;;;;;;5037344;28;20423;-58
2022/02/22 00:25:57;;;;;;;1.08;0.30;;;7.20;1.00;;;;;;5037868;28;20722;-58
2022/02/22 00:28:25;;;;;;;1.92;0.30;;;7.30;1.00;;;;;;5036746;28;20430;-58
2022/02/22 00:30:53;;;;;;;0.70;0.30;;;7.30;1.00;;;;;;5036003;28;20801;-56
2022/02/22 00:33:20;;;;;;;1.10;0.40;;;7.10;99.90;;;;;;5036846;28;20429;-57
2022/02/22 00:35:47;;;;;;;0.75;0.30;;;7.00;1.00;;;;;;5037285;28;20463;-58
2022/02/22 00:38:13;;;;;;;0.70;0.30;;;7.00;64.80;;;;;;5036912;28;20431;-58
2022/02/22 00:40:40;;;;;;;1.27;0.28;;;7.10;99.90;;;;;;5037803;28;20525;-58
2022/02/22 00:43:08;;;;;;;1.00;0.30;;;7.10;1.00;;;;;;5036822;28;20726;-58
2022/02/22 00:45:37;;;;;;;2.15;0.30;;;7.20;1.00;;;;;;5036942;28;20431;-58
2022/02/22 00:48:04;;;;;;;1.05;0.20;;;7.10;60.50;;;;;;5036725;28;20520;-58
2022/02/22 00:50:30;;;;;;;1.60;0.30;;;7.10;15.50;;;;;;5036671;28;20449;-58
2022/02/22 00:52:58;;;;;;;1.20;0.30;;;7.10;1.00;;;;;;5036835;28;20726;-58
2022/02/22 00:55:25;;;;;;;1.67;0.30;;;7.00;1.00;;;;;;5036874;28;20823;-58
2022/02/22 00:57:52;;;;;;;1.90;0.30;;;7.10;1.00;;;;;;5036483;28;20427;-58
2022/02/22 01:00:19;;;;;;;2.72;0.30;;;7.20;99.90;;;;;;5036956;28;20426;-58
2022/02/22 01:02:48;;;;;;;2.20;0.30;;;7.10;99.90;;;;;;5036604;28;20430;-58
2022/02/22 01:05:15;;;;;;;0.52;0.20;;;7.00;1.00;;;;;;5036940;28;20431;-58
2022/02/22 01:07:42;;;;;;;1.30;0.20;;;7.00;1.00;;;;;;5037209;28;20415;-58
2022/02/22 01:10:10;;;;;;;1.30;0.40;;;6.90;99.90;;;;;;5036619;28;20722;-57
2022/02/22 01:12:37;;;;;;;1.02;0.30;;;7.00;99.90;;;;;;5036744;28;20847;-59
2022/02/22 01:15:06;;;;;;;0.60;0.20;;;6.90;94.50;;;;;;5036284;28;20533;-58
2022/02/22 01:17:33;;;;;;;0.60;0.30;;;6.80;99.90;;;;;;5036555;28;20419;-59
2022/02/22 01:20:05;;;;;;;1.30;0.30;;;6.80;1.00;;;;;;5036573;28;20426;-58
2022/02/22 01:22:33;;;;;;;0.70;0.30;;;6.90;99.90;;;;;;5036230;28;20835;-58
2022/02/22 01:25:00;;;;;;;0.87;0.30;;;6.90;99.90;;;;;;5036766;28;20858;-58
2022/02/22 01:27:27;;;;;;;0.88;0.30;;;7.00;1.00;;;;;;5035337;28;20427;-58
2022/02/22 01:29:54;;;;;;;0.60;0.20;;;7.00;1.00;;;;;;5035166;28;20440;-59
2022/02/22 01:32:20;;;;;;;2.20;0.20;;;7.00;1.00;;;;;;5033827;28;20434;-59
2022/02/22 01:34:49;;;;;;;2.35;0.30;;;7.00;1.00;;;;;;5034806;28;20457;-58
2022/02/22 01:37:18;;;;;;;1.40;0.30;;;7.00;1.00;;;;;;5035276;28;20414;-58
2022/02/22 01:39:45;;;;;;;1.10;0.30;;;7.00;1.00;;;;;;5035012;28;20437;-57
2022/02/22 01:42:12;;;;;;;1.50;0.30;;;6.90;1.00;;;;;;5036013;28;20433;-59
2022/02/22 01:44:40;;;;;;;0.60;0.20;;;6.90;1.00;;;;;;5035877;28;20521;-57
2022/02/22 01:47:07;;;;;;;0.70;0.38;;;6.90;99.90;;;;;;5035899;28;20441;-58
2022/02/22 01:49:35;;;;;;;1.73;0.40;;;6.90;1.00;;;;;;5036236;28;20431;-60
2022/02/22 01:52:04;;;;;;;1.30;0.30;;;6.70;99.90;;;;;;5036079;28;20792;-59
2022/02/22 01:54:32;;;;;;;0.98;0.30;;;6.70;99.90;;;;;;5035607;28;20438;-59
2022/02/22 01:56:59;;;;;;;1.80;0.30;;;6.80;1.00;;;;;;5035560;28;20715;-58
2022/02/22 01:59:25;;;;;;;0.90;0.25;;;6.60;99.90;;;;;;5035723;28;20431;-59
2022/02/22 02:01:52;;;;;;;1.13;0.30;;;6.50;1.00;;;;;;5035404;28;20419;-59
2022/02/22 02:04:20;;;;;;;1.25;0.30;;;6.40;99.90;;;;;;5034802;28;20438;-58
2022/02/22 02:06:47;;;;;;;0.77;0.30;;;6.30;1.00;;;;;;5035000;28;20513;-58
2022/02/22 02:09:14;;;;;;;0.55;0.20;;;6.40;99.90;;;;;;5034673;28;20431;-58
2022/02/22 02:11:47;;;;;;;1.42;0.30;;;6.40;1.00;;;;;;5035028;28;20453;-58
2022/02/22 02:14:14;;;;;;;0.82;0.30;;;6.50;1.00;;;;;;5034943;28;20928;-58
2022/02/22 02:16:41;;;;;;;0.60;0.30;;;6.40;1.00;;;;;;5034617;28;20419;-59
2022/02/22 02:19:09;;;;;;;0.70;0.20;;;6.40;1.00;;;;;;5035059;28;20437;-59
2022/02/22 02:21:38;;;;;;;0.80;0.30;;;6.40;1.00;;;;;;5034944;28;20849;-58
2022/02/22 02:24:11;;;;;;;1.02;0.32;;;6.30;1.00;;;;;;5034183;28;20462;-59
2022/02/22 02:26:39;;;;;;;1.00;0.20;;;6.30;1.00;;;;;;5034168;28;20433;-59
2022/02/22 02:29:08;;;;;;;0.90;0.20;;;6.30;99.90;;;;;;5033581;28;20431;-59
2022/02/22 02:31:35;;;;;;;1.00;0.30;;;6.30;99.90;;;;;;5034585;28;20743;-58
2022/02/22 02:34:02;;;;;;;1.40;0.30;;;6.40;99.90;;;;;;5034627;28;20437;-58
2022/02/22 02:36:31;;;;;;;1.33;0.30;;;6.20;99.90;;;;;;5034977;28;20423;-58
2022/02/22 02:38:57;;;;;;;1.30;0.30;;;6.30;97.60;;;;;;5035321;28;20865;-59
2022/02/22 02:41:26;;;;;;;0.60;0.20;;;6.20;1.00;;;;;;5035065;28;20433;-58
2022/02/22 02:43:53;;;;;;;1.38;0.35;;;6.10;1.00;;;;;;5034409;28;20419;-59
2022/02/22 02:46:20;;;;;;;2.10;0.40;;;6.30;1.00;;;;;;5034663;28;20414;-59
2022/02/22 02:48:46;;;;;;;0.50;0.20;;;6.30;99.90;;;;;;5034680;28;20425;-59
2022/02/22 02:51:13;;;;;;;0.70;0.30;;;6.30;1.00;;;;;;5034933;28;20723;-58
2022/02/22 02:53:40;;;;;;;2.53;0.30;;;6.40;1.00;;;;;;5034876;28;20510;-58
2022/02/22 02:56:07;;;;;;;0.80;0.40;;;6.30;97.50;;;;;;5035157;28;20810;-59
2022/02/22 02:58:35;;;;;;;1.75;0.30;;;6.20;1.00;;;;;;5034938;28;20447;-58
2022/02/22 03:01:02;;;;;;;1.70;0.40;;;6.20;1.00;;;;;;5034848;28;20477;-59
2022/02/22 03:03:29;;;;;;;1.35;0.30;;;6.30;99.90;;;;;;5035269;28;20442;-59
2022/02/22 03:05:56;;;;;;;1.77;0.30;;;6.30;1.00;;;;;;5034851;28;20442;-59
2022/02/22 03:08:22;;;;;;;1.02;0.40;;;6.30;1.00;;;;;;5034982;28;20423;-59
2022/02/22 03:10:49;;;;;;;0.60;0.40;;;6.30;1.00;;;;;;5034978;28;20439;-59
2022/02/22 03:13:16;;;;;;;1.87;0.30;;;6.20;1.00;;;;;;5035281;28;20419;-58
2022/02/22 03:15:44;;;;;;;2.20;0.30;;;6.20;1.00;;;;;;5034879;28;20442;-59
2022/02/22 03:18:11;;;;;;;1.70;0.30;;;6.30;1.00;;;;;;5034838;28;20517;-58
2022/02/22 03:20:38;;;;;;;0.60;0.30;;;6.20;99.90;;;;;;5034975;28;20517;-58
2022/02/22 03:23:05;;;;;;;2.30;0.40;;;6.20;99.90;;;;;;5034661;28;20427;-59
2022/02/22 03:25:32;;;;;;;1.17;0.38;;;6.20;99.90;;;;;;5034837;28;20433;-59
2022/02/22 03:28:00;;;;;;;1.10;0.40;;;6.30;5.70;;;;;;5034741;28;20433;-60
2022/02/22 03:30:28;;;;;;;1.90;0.32;;;6.20;1.00;;;;;;5034953;28;20441;-59
2022/02/22 03:32:56;;;;;;;1.30;0.30;;;6.20;99.90;;;;;;5034248;28;20443;-59
2022/02/22 03:35:23;;;;;;;1.30;0.30;;;6.20;1.00;;;;;;5034205;28;20438;-59
2022/02/22 03:37:50;;;;;;;1.50;0.20;;;6.20;99.90;;;;;;5033829;28;20437;-59
2022/02/22 03:40:18;;;;;;;1.40;0.30;;;6.30;1.00;;;;;;5033611;28;20466;-59
2022/02/22 03:42:46;;;;;;;1.00;0.30;;;6.20;99.90;;;;;;5032891;28;20427;-58
2022/02/22 03:45:14;;;;;;;2.30;0.30;;;6.30;1.00;;;;;;5033290;28;20431;-59
2022/02/22 03:47:41;;;;;;;4.05;0.30;;;6.20;1.00;;;;;;5033376;28;20728;-59
2022/02/22 03:50:11;;;;;;;0.80;0.30;;;6.20;1.00;;;;;;5033202;28;20517;-59
2022/02/22 03:52:39;;;;;;;1.42;0.40;;;6.20;1.00;;;;;;5033450;28;20427;-59
2022/02/22 03:55:07;;;;;;;1.65;0.30;;;6.20;99.90;;;;;;5035484;28;20530;-58
2022/02/22 03:57:35;;;;;;;1.40;0.30;;;6.20;15.60;;;;;;5038125;28;20423;-59
2022/02/22 04:00:02;;;;;;;1.17;0.40;;;6.20;1.00;;;;;;5038309;28;20613;-59
2022/02/22 04:02:30;;;;;;;0.60;0.30;;;6.10;1.00;;;;;;5037741;28;20485;-59
2022/02/22 04:04:57;;;;;;;2.47;0.40;;;6.10;22.30;;;;;;5037541;28;20658;-59
2022/02/22 04:07:25;;;;;;;2.25;0.40;;;6.10;99.90;;;;;;5036578;28;20423;-59
2022/02/22 04:09:52;;;;;;;1.40;0.30;;;6.20;1.00;;;;;;5037593;28;20506;-59
2022/02/22 04:12:19;;;;;;;0.95;0.30;;;6.20;1.00;;;;;;5037476;28;20431;-59
2022/02/22 04:14:46;;;;;;;1.40;0.40;;;6.20;1.00;;;;;;5037434;28;20435;-58
2022/02/22 04:17:12;;;;;;;1.20;0.30;;;6.30;99.90;;;;;;5037140;28;20527;-58
2022/02/22 04:19:39;;;;;;;1.98;0.30;;;6.30;99.90;;;;;;5037904;28;20426;-58
2022/02/22 04:22:10;;;;;;;0.80;0.30;;;6.20;1.00;;;;;;5037996;28;20418;-58
2022/02/22 04:24:39;;;;;;;1.00;0.32;;;6.20;1.00;;;;;;5037806;28;20533;-58
2022/02/22 04:27:06;;;;;;;1.25;0.30;;;6.10;20.80;;;;;;5036408;28;20423;-58
2022/02/22 04:29:33;;;;;;;0.77;0.30;;;6.20;99.90;;;;;;5037074;28;20437;-58
2022/02/22 04:32:01;;;;;;;1.58;0.30;;;6.20;62.60;;;;;;5037168;28;20441;-58
2022/02/22 04:34:28;;;;;;;1.23;0.40;;;6.10;1.00;;;;;;5037675;28;20431;-58
2022/02/22 04:36:55;;;;;;;1.00;0.40;;;6.10;1.00;;;;;;5037711;28;20872;-58
2022/02/22 04:39:22;;;;;;;0.70;0.40;;;6.00;99.90;;;;;;5037445;28;20426;-58
2022/02/22 04:41:51;;;;;;;1.50;0.40;;;6.00;93.20;;;;;;5037323;28;20509;-58
2022/02/22 04:44:18;;;;;;;1.45;0.38;;;5.90;99.90;;;;;;5037082;28;20785;-58
2022/02/22 04:46:45;;;;;;;1.48;0.40;;;5.80;99.90;;;;;;5037168;28;20473;-59
2022/02/22 04:49:12;;;;;;;1.50;0.40;;;5.90;99.90;;;;;;5036772;28;20430;-59
2022/02/22 04:51:41;;;;;;;0.80;0.40;;;6.00;85.80;;;;;;5036829;28;20435;-59
2022/02/22 04:54:08;;;;;;;0.93;0.40;;;5.90;1.00;;;;;;5036352;28;20437;-59
2022/02/22 04:56:35;;;;;;;1.60;0.40;;;5.80;22.40;;;;;;5036440;28;20734;-59
2022/02/22 04:59:04;;;;;;;0.60;0.35;;;5.70;1.00;;;;;;5036867;28;20433;-59
2022/02/22 05:01:31;;;;;;;2.80;0.50;;;5.70;99.90;;;;;;5036805;28;20854;-59
2022/02/22 05:03:58;;;;;;;1.30;0.40;;;5.70;99.90;;;;;;5037206;28;20437;-58
2022/02/22 05:06:24;;;;;;;1.30;0.40;;;5.80;99.90;;;;;;5035843;28;20808;-58
2022/02/22 05:08:51;;;;;;;1.90;0.40;;;5.80;1.00;;;;;;5036894;28;20849;-58
2022/02/22 05:11:18;;;;;;;1.98;0.40;;;5.80;99.90;;;;;;5035769;28;20528;-59
2022/02/22 05:13:45;;;;;;;1.70;0.40;;;5.90;99.90;;;;;;5035535;28;20727;-60
2022/02/22 05:16:14;;;;;;;1.70;0.70;;;5.90;99.90;;;;;;5035253;28;20426;-60
2022/02/22 05:18:41;;;;;;;3.22;0.50;;;5.90;99.90;;;;;;5035290;28;20854;-59
2022/02/22 05:21:07;;;;;;;2.50;0.40;;;5.80;99.90;;;;;;5036364;28;20516;-59
2022/02/22 05:23:35;;;;;;;1.50;0.40;;;5.80;99.90;;;;;;5035922;28;20427;-59
2022/02/22 05:26:03;;;;;;;2.13;0.40;;;5.70;1.00;;;;;;5035893;28;20423;-59
2022/02/22 05:28:31;;;;;;;0.90;0.43;;;5.70;1.00;;;;;;5036434;28;20481;-59
2022/02/22 05:30:58;;;;;;;0.90;0.30;;;5.60;1.00;;;;;;5036008;28;20430;-59
2022/02/22 05:33:26;;;;;;;0.93;0.30;;;5.80;1.00;;;;;;5035414;28;20433;-58
2022/02/22 05:35:54;;;;;;;1.10;0.40;;;5.70;99.90;;;;;;5035827;28;20437;-58
2022/02/22 05:38:21;;;;;;;2.20;0.40;;;5.70;99.90;;;;;;5035147;28;20427;-59
2022/02/22 05:40:48;;;;;;;1.60;0.40;;;5.80;99.90;;;;;;5034495;28;20506;-59
2022/02/22 05:43:15;;;;;;;2.20;0.40;;;5.90;99.90;;;;;;5035173;28;20423;-59
2022/02/22 05:45:42;;;;;;;2.33;0.40;;;5.80;99.90;;;;;;5035747;28;20435;-59
2022/02/22 05:48:08;;;;;;;1.50;0.30;;;5.70;99.90;;;;;;5035176;28;20808;-59
2022/02/22 05:50:38;;;;;;;0.80;0.40;;;5.80;99.90;;;;;;5035719;28;20437;-59
2022/02/22 05:53:05;;;;;;;1.10;0.40;;;5.90;1.00;;;;;;5035565;28;20437;-60
2022/02/22 05:55:32;;;;;;;0.93;0.40;;;5.80;99.90;;;;;;5035666;28;20805;-59
2022/02/22 05:57:59;;;;;;;1.50;0.40;;;5.90;1.00;;;;;;5035596;28;20430;-60
2022/02/22 06:00:26;;;;;;;1.53;0.40;;;5.80;1.00;;;;;;5035561;28;20435;-60
2022/02/22 06:02:53;;;;;;;1.50;0.40;;;5.70;1.00;;;;;;5033518;28;20418;-58
2022/02/22 06:05:19;;;;;;;1.40;0.40;;;5.70;1.00;;;;;;5034525;28;20430;-59
2022/02/22 06:07:47;;;;;;;2.90;0.40;;;5.60;1.00;;;;;;5034385;28;20427;-58
2022/02/22 06:10:15;;;;;;;0.90;0.30;;;5.60;1.00;;;;;;5034530;28;20430;-59
2022/02/22 06:12:45;;;;;;;0.80;0.30;;;5.60;99.90;;;;;;5034497;28;20439;-58
2022/02/22 06:15:12;;;;;;;1.70;0.40;;;5.40;1.00;;;;;;5035374;28;20434;-59
2022/02/22 06:17:40;;;;;;;1.90;0.40;;;5.50;99.90;;;;;;5035144;28;20418;-59
2022/02/22 06:20:08;;;;;;;1.80;0.30;;;5.40;1.00;;;;;;5034777;28;20850;-59
2022/02/22 06:22:35;;;;;;;0.80;0.40;;;5.40;99.90;;;;;;5034631;28;20426;-59
2022/02/22 06:25:05;;;;;;;2.10;0.40;;;5.40;99.90;;;;;;5034042;28;20849;-59
2022/02/22 06:27:32;;;;;;;3.80;0.40;;;5.50;23.10;;;;;;5033225;28;20427;-58
2022/02/22 06:29:59;;;;;;;1.20;0.40;;;5.60;99.90;;;;;;5033219;28;20518;-61
2022/02/22 06:32:25;;;;;;;1.60;0.50;;;5.60;52.00;;;;;;5033752;28;20435;-58
2022/02/22 06:34:52;;;;;;;2.20;0.50;;;5.70;99.90;;;;;;5032443;28;20434;-58
2022/02/22 06:37:19;;;;;;;1.20;0.40;;;5.70;99.90;;;;;;5033480;28;20517;-58
2022/02/22 06:39:46;;;;;;;1.63;0.40;;;5.60;99.90;;;;;;5031268;28;20427;-58
2022/02/22 06:42:14;;;;;;;2.10;0.60;;;5.60;99.90;;;;;;5033689;28;20423;-58
2022/02/22 06:44:41;;;;;;;3.20;0.50;;;5.70;99.90;;;;;;5032663;28;20726;-58
2022/02/22 06:47:08;;;;;;;1.10;0.60;;;5.60;99.90;;;;;;5033037;28;20446;-59
2022/02/22 06:49:34;;;;;;;2.33;0.60;;;5.50;99.90;;;;;;5033683;28;20437;-58
2022/02/22 06:52:01;;;;;;;1.40;0.50;;;5.50;1.00;;;;;;5033659;28;20719;-59
2022/02/22 06:54:28;;;;;;;1.95;0.50;;;5.60;99.90;;;;;;5033446;28;20431;-58
2022/02/22 06:56:55;;;;;;;1.70;0.50;;;5.60;1.00;;;;;;5032903;28;20430;-58
2022/02/22 06:59:23;;;;;;;2.00;0.50;;;5.60;99.90;;;;;;5032233;28;20437;-59
2022/02/22 07:01:50;;;;;;;1.10;0.50;;;5.60;99.90;;;;;;5032606;28;20719;-58
2022/02/22 07:04:17;;;;;;;0.95;0.40;;;5.60;99.90;;;;;;5031179;28;20423;-58
2022/02/22 07:06:44;;;;;;;2.78;0.60;;;5.50;1.00;;;;;;5032002;28;20423;-58
2022/02/22 07:09:11;;;;;;;1.45;0.50;;;5.40;1.00;;;;;;5030915;28;20434;-58
2022/02/22 07:11:37;;;;;;;1.90;0.50;;;5.40;1.00;;;;;;5030157;28;20728;-58
2022/02/22 07:14:04;;;;;;;1.45;0.50;;;5.50;99.90;;;;;;5035416;28;20438;-58
2022/02/22 07:16:32;;;;;;;1.60;0.47;;;5.60;99.90;;;;;;5037165;28;20425;-58
2022/02/22 07:18:59;;;;;;;1.67;0.40;;;5.80;28.00;;;;;;5038108;28;20456;-58
2022/02/22 07:21:26;;;;;;;4.68;0.80;;;5.80;33.40;;;;;;5039809;28;20435;-58
2022/02/22 07:23:53;;;;;;;1.30;0.40;;;5.80;1.00;;;;;;5036694;28;20431;-58
2022/02/22 07:26:20;;;;;;;2.53;0.50;;;5.80;1.00;;;;;;5041185;28;20873;-58
2022/02/22 07:28:47;;;;;;;0.80;0.40;;;5.80;99.90;;;;;;5049853;28;20766;-58
2022/02/22 07:31:13;;;;;;;2.50;0.50;;;6.00;60.00;;;;;;5070425;28;20416;-57
2022/02/22 07:33:42;;;;;;;2.20;0.40;;;6.10;1.00;;;;;;5040120;28;20538;-58
2022/02/22 07:36:09;;;;;;;1.60;0.50;;;6.10;1.00;;;;;;5039156;28;20430;-59
2022/02/22 07:38:35;;;;;;;1.20;0.43;;;6.10;1.00;;;;;;5045084;28;20416;-59
2022/02/22 07:41:02;;;;;;;1.50;0.50;;;6.10;99.90;;;;;;5043622;28;20443;-58
2022/02/22 07:43:29;;;;;;;2.30;0.40;;;6.20;1.00;;;;;;5040198;28;20724;-58
2022/02/22 07:45:56;;;;;;;2.20;0.50;;;6.20;99.90;;;;;;5048204;28;20529;-58
2022/02/22 07:48:23;;;;;;;0.77;0.30;;;6.40;99.90;;;;;;5043835;28;20817;-59
2022/02/22 07:50:52;;;;;;;2.60;0.50;;;6.70;67.10;;;;;;5043698;28;20434;-58
2022/02/22 07:53:19;;;;;;;1.25;0.40;;;6.70;99.90;;;;;;5046964;28;20433;-58
2022/02/22 07:55:45;;;;;;;1.60;0.40;;;6.60;1.00;;;;;;5047152;28;20435;-58
2022/02/22 07:58:12;;;;;;;2.00;0.50;;;6.50;1.00;;;;;;5046084;28;20433;-58
2022/02/22 08:00:39;;;;;;;2.05;0.40;;;6.60;1.00;;;;;;5045927;28;20735;-57
2022/02/22 08:03:06;;;;;;;1.70;0.40;;;6.80;1.00;;;;;;5037483;28;20419;-57
2022/02/22 08:05:34;;;;;;;1.10;0.50;;;6.90;1.00;;;;;;5049951;28;20445;-58
2022/02/22 08:08:03;;;;;;;2.17;0.80;;;6.90;99.90;;;;;;5043555;28;20994;-58
2022/02/22 08:10:30;;;;;;;3.00;0.40;;;6.60;99.90;;;;;;5042670;28;20558;-58
2022/02/22 08:12:57;;;;;;;1.67;0.40;;;6.60;1.00;;;;;;5050976;28;20435;-58
2022/02/22 08:15:24;;;;;;;1.25;0.38;;;6.70;99.90;;;;;;5047227;28;21222;-57
2022/02/22 08:17:51;;;;;;;0.80;0.30;;;6.80;1.00;;;;;;5044230;28;20515;-57
2022/02/22 08:20:18;;;;;;;1.23;0.30;;;6.80;99.90;;;;;;5045040;28;20544;-58
2022/02/22 08:22:45;;;;;;;1.35;0.40;;;6.70;99.90;;;;;;5046317;28;20695;-60
2022/02/22 08:25:13;;;;;;;2.30;0.50;;;6.70;1.00;;;;;;5043039;28;20495;-60
2022/02/22 08:27:40;;;;;;;2.70;0.60;;;6.90;99.90;;;;;;5042642;28;20476;-58
2022/02/22 08:30:07;;;;;;;1.20;0.40;;;6.90;99.90;;;;;;5048830;28;20496;-58
2022/02/22 08:32:34;;;;;;;0.90;0.40;;;7.00;99.90;;;;;;5046800;28;20433;-53
2022/02/22 08:35:01;;;;;;;1.90;0.50;;;7.00;1.00;;;;;;5043218;28;20439;-56
2022/02/22 08:37:28;;;;;;;2.28;0.40;;;7.00;99.90;;;;;;5050581;28;20432;-52
2022/02/22 08:39:55;;;;;;;2.08;0.40;;;6.90;1.00;;;;;;5039448;28;20756;-54
2022/02/22 08:42:23;;;;;;;1.27;0.40;;;7.00;1.00;;;;;;5042329;28;20439;-57
2022/02/22 08:44:50;;;;;;;1.10;0.40;;;7.00;1.00;;;;;;5040222;28;20729;-54
2022/02/22 08:47:16;;;;;;;2.10;0.40;;;7.00;87.00;;;;;;5043215;28;20427;-52
2022/02/22 08:49:45;;;;;;;1.60;0.50;;;7.20;99.90;;;;;;5041909;28;20441;-55
2022/02/22 08:52:13;;;;;;;1.60;0.50;;;7.30;1.00;;;;;;5049385;28;20440;-53
2022/02/22 08:54:39;;;;;;;2.33;0.50;;;7.40;76.70;;;;;;5053781;28;20831;-49
2022/02/22 08:57:07;;;;;;;1.52;0.40;;;7.30;1.00;;;;;;5047850;28;20429;-55
2022/02/22 08:59:35;;;;;;;1.25;0.40;;;7.40;1.00;;;;;;5044427;28;20853;-53
2022/02/22 09:02:02;;;;;;;0.90;0.50;;;7.40;1.00;;;;;;5040307;28;20434;-55
2022/02/22 09:04:30;;;;;;;2.50;0.50;;;7.40;1.00;;;;;;5041124;28;20857;-53
2022/02/22 09:06:57;;;;;;;2.40;0.50;;;7.50;1.00;;;;;;5043484;28;20425;-55
2022/02/22 09:09:23;;;;;;;2.40;0.40;;;7.70;1.00;;;;;;5039094;28;20501;-54
2022/02/22 09:11:50;;;;;;;1.10;0.45;;;7.80;1.00;;;;;;5042972;28;20431;-56
2022/02/22 09:14:17;;;;;;;2.78;0.40;;;7.90;1.00;;;;;;5033477;28;20920;-56
2022/02/22 09:16:45;;;;;;;2.00;0.50;;;8.10;1.00;;;;;;5035627;28;20711;-56
2022/02/22 09:19:12;;;;;;;3.20;0.40;;;8.40;1.00;;;;;;5049178;28;20441;-56
2022/02/22 09:21:39;;;;;;;1.80;0.40;;;8.50;1.00;;;;;;5049874;28;20425;-56
2022/02/22 09:24:06;;;;;;;1.58;0.30;;;8.60;1.00;;;;;;5034796;28;20427;-56
2022/02/22 09:26:33;;;;;;;1.73;0.40;;;8.40;1.00;;;;;;5035087;28;20459;-57
2022/02/22 09:29:00;;;;;;;1.20;0.40;;;8.70;1.00;;;;;;5058185;28;20444;-56
2022/02/22 09:31:27;;;;;;;2.30;0.32;;;8.50;99.90;;;;;;5052307;28;20725;-58
2022/02/22 09:33:55;;;;;;;2.00;0.33;;;8.50;1.00;;;;;;5039680;28;21620;-55
2022/02/22 09:36:22;;;;;;;1.73;0.40;;;8.50;99.90;;;;;;5032097;28;20718;-57
2022/02/22 09:38:49;;;;;;;0.60;0.30;;;8.70;99.90;;;;;;5037854;28;20430;-56
2022/02/22 09:41:16;;;;;;;1.08;0.30;;;8.40;99.90;;;;;;5039690;28;20425;-57
2022/02/22 09:43:43;;;;;;;0.80;0.30;;;8.30;1.00;;;;;;5051320;28;20413;-56
2022/02/22 09:46:10;;;;;;;1.60;0.30;;;8.20;1.00;;;;;;5037824;28;20429;-57
2022/02/22 09:48:37;;;;;;;0.80;0.30;;;8.30;1.00;;;;;;5051085;28;20938;-58
2022/02/22 09:51:05;;;;;;;2.60;0.40;;;8.30;1.00;;;;;;5045249;28;20496;-57
2022/02/22 09:53:32;;;;;;;0.80;0.40;;;8.50;1.00;;;;;;5035498;28;20434;-54
2022/02/22 09:55:59;;;;;;;1.43;0.30;;;8.90;99.90;;;;;;5036772;28;20429;-57
2022/02/22 09:58:26;;;;;;;2.08;0.70;;;8.90;99.90;;;;;;5053660;28;20736;-57
2022/02/22 10:01:00;;;;;;;2.00;0.40;;;8.80;99.90;;;;;;5037609;28;20445;-55
2022/02/22 10:03:27;;;;;;;0.67;0.30;;;8.50;99.90;;;;;;5035023;28;20759;-56
2022/02/22 10:05:55;;;;;;;1.05;0.30;;;8.40;1.00;;;;;;5034072;28;20441;-56
2022/02/22 10:08:27;;;;;;;0.88;0.40;;;8.60;1.00;;;;;;5052865;28;20516;-58
2022/02/22 10:11:05;;;;;;;1.10;0.30;;;8.60;99.90;;;;;;5048777;28;20453;-56
2022/02/22 10:13:33;;;;;;;1.35;0.30;;;8.90;99.90;;;;;;5049454;28;20853;-56
2022/02/22 10:16:04;;;;;;;0.83;0.30;;;8.80;99.90;;;;;;5050487;28;20443;-56
2022/02/22 10:18:31;;;;;;;1.77;0.40;;;9.10;99.90;;;;;;5046239;28;20427;-57
2022/02/22 10:20:59;;;;;;;1.20;0.40;;;9.40;99.90;;;;;;5032964;28;20730;-57
2022/02/22 10:23:32;;;;;;;3.03;0.30;;;9.30;99.90;;;;;;5039384;28;20427;-58
2022/02/22 10:26:00;;;;;;;0.98;0.40;;;9.30;99.90;;;;;;5052791;28;20512;-59
2022/02/22 10:28:28;;;;;;;1.75;0.30;;;9.40;99.90;;;;;;5043766;28;20868;-59
2022/02/22 10:30:55;;;;;;;1.05;0.40;;;9.40;99.90;;;;;;5058840;28;20436;-59
2022/02/22 10:33:24;;;;;;;1.65;0.40;;;9.30;99.90;;;;;;5044710;28;20445;-58
2022/02/22 10:35:52;;;;;;;1.40;0.30;;;9.20;99.90;;;;;;5033743;28;20431;-57
2022/02/22 10:38:22;;;;;;;1.20;0.50;;;9.30;99.90;;;;;;5050006;28;20431;-59
2022/02/22 10:41:01;;;;;;;1.05;0.40;;;9.50;99.90;;;;;;5037591;28;20881;-58
2022/02/22 10:43:29;;;;;;;1.30;0.40;;;9.30;99.90;;;;;;5035232;28;20509;-58
2022/02/22 10:45:58;;;;;;;1.65;0.40;;;9.20;99.90;;;;;;5039973;28;20435;-57
2022/02/22 10:48:27;;;;;;;1.65;0.40;;;9.20;99.90;;;;;;5048460;28;20425;-48
2022/02/22 10:50:54;;;;;;;0.70;0.40;;;9.30;99.90;;;;;;5048300;28;20446;-60
2022/02/22 10:53:26;;;;;;;2.30;0.40;;;9.40;99.90;;;;;;5047566;28;20425;-60
2022/02/22 10:55:55;;;;;;;2.05;0.40;;;9.50;99.90;;;;;;5048702;28;20440;-60
2022/02/22 10:58:23;;;;;;;5.10;1.48;;;9.80;99.90;;;;;;5054182;28;20425;-60
2022/02/22 11:00:50;;;;;;;4.97;1.93;;;9.90;99.90;;;;;;5033292;28;20623;-60
2022/02/22 11:03:17;;;;;;;1.27;0.43;;;9.70;99.90;;;;;;5048867;28;20436;-60
2022/02/22 11:05:43;;;;;;;1.30;0.53;;;9.70;99.90;;;;;;5056094;28;20437;-60
2022/02/22 11:08:11;;;;;;;2.53;0.50;;;9.70;99.90;;;;;;5050041;28;20429;-60
2022/02/22 11:10:45;;;;;;;1.00;0.40;;;9.70;99.90;;;;;;5057788;28;20451;-60
2022/02/22 11:13:13;;;;;;;1.20;0.50;;;9.60;99.90;;;;;;5043926;28;20437;-60
2022/02/22 11:15:41;;;;;;;3.30;0.85;;;9.50;99.90;;;;;;5050453;28;20739;-60
2022/02/22 11:18:19;;;;;;;2.42;0.50;;;9.70;99.90;;;;;;5056151;28;20431;-60
2022/02/22 11:20:46;;;;;;;1.70;0.45;;;9.80;99.90;;;;;;5056725;28;20571;-60
2022/02/22 11:23:23;;;;;;;3.20;0.40;;;9.90;99.90;;;;;;5054201;28;20846;-60
2022/02/22 11:25:52;;;;;;;2.17;0.50;;;9.70;99.90;;;;;;5055987;28;20429;-59
2022/02/22 11:28:20;;;;;;;2.92;0.60;;;9.70;99.90;;;;;;5051870;28;20430;-60
2022/02/22 11:30:47;;;;;;;4.20;1.60;;;9.90;99.90;;;;;;5048357;28;20889;-60
2022/02/22 11:33:18;;;;;;;2.30;0.70;;;10.10;99.90;;;;;;5045459;28;20527;-60
2022/02/22 11:35:47;;;;;;;2.15;0.40;;;10.20;99.90;;;;;;5056860;28;20436;-60
2022/02/22 11:38:15;;;;;;;3.20;0.60;;;10.10;99.90;;;;;;5051634;28;20468;-59
2022/02/22 11:40:43;;;;;;;1.98;0.47;;;10.20;99.90;;;;;;5046128;28;20731;-59
2022/02/22 11:43:13;;;;;;;2.57;0.50;;;10.20;96.10;;;;;;5047273;28;20423;-60
2022/02/22 11:45:43;;;;;;;1.38;0.40;;;10.00;95.10;;;;;;5049579;28;20439;-61
2022/02/22 11:48:21;;;;;;;3.30;0.50;;;9.80;99.90;;;;;;5038730;28;20422;-61
2022/02/22 11:50:53;;;;;;;2.03;0.40;;;9.60;99.90;;;;;;5040360;28;20433;-60
2022/02/22 11:53:23;;;;;;;23.73;1.60;;;9.50;99.90;;;;;;5048803;28;20447;-59
2022/02/22 11:55:51;;;;;;;5.25;0.80;;;9.60;99.90;;;;;;5039539;28;20441;-59
2022/02/22 11:58:22;;;;;;;0.95;0.40;;;9.70;99.90;;;;;;5038178;28;20757;-58
2022/02/22 12:00:54;;;;;;;1.83;0.55;;;9.30;99.90;;;;;;5043331;28;20450;-61
2022/02/22 12:03:22;;;;;;;1.40;0.40;;;9.20;99.90;;;;;;5048791;28;20425;-61
2022/02/22 12:05:56;;;;;;;2.20;0.50;;;9.20;99.90;;;;;;5052142;28;20495;-62
2022/02/22 12:08:25;;;;;;;1.60;0.40;;;9.30;99.90;;;;;;5052001;28;20429;-65
2022/02/22 12:10:55;;;;;;;1.00;0.40;;;9.50;99.90;;;;;;5054217;28;20737;-66
2022/02/22 12:13:23;;;;;;;2.03;0.40;;;10.00;99.90;;;;;;5041600;28;20431;-67
2022/02/22 12:15:52;;;;;;;2.03;0.30;;;9.90;79.50;;;;;;5063614;28;20428;-66
2022/02/22 12:18:20;;;;;;;1.70;0.40;;;10.00;51.00;;;;;;5074154;28;20419;-66
2022/02/22 12:20:49;;;;;;;1.20;0.40;;;9.90;99.90;;;;;;5053382;28;20441;-65
2022/02/22 12:23:17;;;;;;;1.30;0.40;;;9.80;99.90;;;;;;5036873;28;20716;-66
2022/02/22 12:25:44;;;;;;;1.05;0.38;;;9.60;99.90;;;;;;5042887;28;20434;-66
2022/02/22 12:28:11;;;;;;;1.33;0.40;;;9.70;99.90;;;;;;5036988;28;20895;-65
2022/02/22 12:30:41;;;;;;;1.58;0.45;;;9.70;99.90;;;;;;5033092;28;20488;-65
2022/02/22 12:33:09;;;;;;;1.80;0.40;;;9.80;99.90;;;;;;5048068;28;20429;-65
2022/02/22 12:35:38;;;;;;;2.10;0.40;;;9.80;99.90;;;;;;5041764;28;20425;-66
2022/02/22 12:38:13;;;;;;;1.30;0.50;;;10.00;99.90;;;;;;5050761;28;20429;-66
2022/02/22 12:40:40;;;;;;;1.30;0.40;;;10.20;99.90;;;;;;5051982;28;20443;-67
2022/02/22 12:43:09;;;;;;;1.20;0.50;;;10.10;99.50;;;;;;5054112;28;21012;-67
2022/02/22 12:45:37;;;;;;;1.52;0.40;;;10.10;99.90;;;;;;5034485;28;20478;-66
2022/02/22 12:48:06;;;;;;;2.50;0.50;;;10.20;73.60;;;;;;5033781;28;20580;-66
2022/02/22 12:50:35;;;;;;;1.10;0.40;;;10.20;38.70;;;;;;5046804;28;20444;-66
2022/02/22 12:53:02;;;;;;;2.40;0.40;;;10.30;43.50;;;;;;5039102;28;20489;-66
2022/02/22 12:55:29;;;;;;;1.50;0.40;;;10.30;39.00;;;;;;5035773;28;20438;-66
2022/02/22 12:58:07;;;;;;;4.55;1.10;;;10.40;13.60;;;;;;5034971;28;20427;-65
2022/02/22 13:00:34;;;;;;;3.15;0.85;;;10.70;7.90;;;;;;5038071;28;20436;-65
2022/02/22 13:03:11;;;;;;;5.03;0.90;;;11.00;1.00;;;;;;5045636;28;20425;-65